Time;durP1;ratioP1;P1;durP2;ratioP2;P2;SDS_P1;SDS_P2;PMS_P1;PMS_P2;Temp;Humidity;BMP_temperature;BMP_pressure;BME280_temperature;BME280_humidity;BME280_pressure;Samples;Min_cycle;Max_cycle;Signal;HPM_P1;HPM_P2
2021/06/11 00:00:52;;;;;;;10.10;4.15;;;;;;;17.75;57.67;100428.53;1714850;81;31877;-81
2021/06/11 00:03:19;;;;;;;10.63;4.42;;;;;;;17.73;57.71;100423.95;1715041;81;25652;-80
2021/06/11 00:05:45;;;;;;;10.35;5.25;;;;;;;17.73;57.64;100430.08;1715691;81;25676;-80
2021/06/11 00:08:12;;;;;;;8.73;4.60;;;;;;;17.71;57.65;100428.15;1713075;81;25932;-80
2021/06/11 00:10:39;;;;;;;8.40;4.58;;;;;;;17.68;57.83;100427.77;1714429;81;25180;-80
2021/06/11 00:13:07;;;;;;;10.45;4.60;;;;;;;17.69;57.95;100426.22;1718470;81;25644;-80
2021/06/11 00:15:34;;;;;;;9.00;4.62;;;;;;;17.67;57.86;100426.13;1716560;81;25767;-81
2021/06/11 00:17:59;;;;;;;11.48;4.72;;;;;;;17.59;57.93;100425.04;1716151;81;26276;-81
2021/06/11 00:20:26;;;;;;;12.68;5.08;;;;;;;17.52;58.01;100422.44;1716462;81;33049;-81
2021/06/11 00:22:52;;;;;;;11.30;5.10;;;;;;;17.45;58.17;100421.64;1716648;81;25851;-81
2021/06/11 00:25:25;;;;;;;9.93;4.45;;;;;;;17.39;58.34;100425.92;1714450;81;25608;-80
2021/06/11 00:27:54;;;;;;;10.63;4.80;;;;;;;17.33;58.50;100420.16;1717479;81;25716;-80
2021/06/11 00:30:22;;;;;;;13.20;5.03;;;;;;;17.27;58.60;100423.64;1717175;81;25705;-80
2021/06/11 00:32:48;;;;;;;12.50;4.47;;;;;;;17.23;58.67;100427.70;1716877;81;25629;-80
2021/06/11 00:35:14;;;;;;;9.43;5.10;;;;;;;17.23;58.83;100423.73;1715211;81;26470;-80
2021/06/11 00:37:40;;;;;;;8.48;4.78;;;;;;;17.19;58.99;100423.34;1714118;81;26647;-80
2021/06/11 00:40:10;;;;;;;9.40;4.90;;;;;;;17.17;59.11;100429.34;1716588;81;25184;-80
2021/06/11 00:42:37;;;;;;;11.12;5.00;;;;;;;17.15;59.22;100423.44;1715669;81;26409;-80
2021/06/11 00:45:05;;;;;;;8.48;4.60;;;;;;;17.13;59.38;100428.62;1716896;81;25637;-80
2021/06/11 00:47:30;;;;;;;7.10;4.67;;;;;;;17.13;59.49;100418.87;1713195;81;25683;-80
2021/06/11 00:49:56;;;;;;;8.40;4.90;;;;;;;17.13;59.46;100416.73;1716151;81;35302;-80
2021/06/11 00:52:22;;;;;;;10.70;4.90;;;;;;;17.17;59.67;100412.17;1717526;81;32455;-80
2021/06/11 00:54:49;;;;;;;11.15;4.75;;;;;;;17.25;59.75;100411.14;1716953;81;25672;-80
2021/06/11 00:57:15;;;;;;;9.98;5.25;;;;;;;17.30;59.74;100407.37;1719371;81;25786;-80
2021/06/11 00:59:41;;;;;;;10.95;4.75;;;;;;;17.36;59.72;100407.05;1716898;81;31281;-80
2021/06/11 01:02:10;;;;;;;8.70;4.70;;;;;;;17.38;59.58;100408.46;1716696;81;25665;-80
2021/06/11 01:04:37;;;;;;;8.45;4.20;;;;;;;17.40;59.64;100408.23;1717728;81;25645;-80
2021/06/11 01:07:05;;;;;;;8.63;4.20;;;;;;;17.36;59.58;100405.72;1715777;81;25626;-80
2021/06/11 01:09:34;;;;;;;10.50;4.85;;;;;;;17.29;59.70;100394.64;1718117;81;25703;-80
2021/06/11 01:12:01;;;;;;;10.08;4.80;;;;;;;17.27;59.81;100396.70;1717028;81;31252;-80
2021/06/11 01:14:27;;;;;;;7.67;4.75;;;;;;;17.13;59.75;100397.73;1717847;81;25629;-80
2021/06/11 01:16:52;;;;;;;10.00;5.05;;;;;;;16.90;59.86;100393.44;1716023;81;25764;-80
2021/06/11 01:19:24;;;;;;;8.90;4.72;;;;;;;16.73;60.20;100407.03;1714675;81;26072;-80
2021/06/11 01:21:55;;;;;;;11.88;4.70;;;;;;;16.56;60.49;100411.91;1706438;81;25761;-81
2021/06/11 01:24:26;;;;;;;12.55;5.60;;;;;;;16.33;60.88;100411.48;1716781;81;25661;-80
2021/06/11 01:26:55;;;;;;;10.43;5.25;;;;;;;16.22;61.27;100409.44;1717061;81;25748;-81
2021/06/11 01:29:28;;;;;;;9.57;4.93;;;;;;;16.18;61.62;100405.89;1716107;81;25645;-80
2021/06/11 01:31:59;;;;;;;9.53;4.42;;;;;;;16.25;62.00;100412.48;1715904;81;25727;-81
2021/06/11 01:34:29;;;;;;;11.33;5.40;;;;;;;16.30;62.02;100415.84;1716552;81;25736;-81
2021/06/11 01:37:09;;;;;;;;;;;;;;;16.27;61.93;100417.56;1720236;81;25708;-78
2021/06/11 01:39:38;;;;;;;10.63;4.92;;;;;;;16.25;62.16;100416.44;1717134;81;26343;-78
2021/06/11 01:42:05;;;;;;;12.47;6.05;;;;;;;16.29;62.25;100416.35;1716466;81;25735;-80
2021/06/11 01:44:32;;;;;;;9.68;5.33;;;;;;;16.30;62.34;100414.02;1699021;82;26464;-80
2021/06/11 01:47:01;;;;;;;9.63;5.37;;;;;;;16.28;62.30;100413.91;1690652;81;25829;-81
2021/06/11 01:49:28;;;;;;;9.83;5.60;;;;;;;16.20;62.35;100415.73;1715503;81;25777;-81
2021/06/11 01:51:58;;;;;;;9.75;5.33;;;;;;;16.12;62.44;100416.41;1716609;81;25673;-80
2021/06/11 01:54:25;;;;;;;8.23;5.33;;;;;;;16.07;62.65;100410.92;1717364;81;25183;-77
2021/06/11 01:56:52;;;;;;;9.35;5.55;;;;;;;16.15;62.89;100410.73;1718620;81;25742;-77
2021/06/11 01:59:18;;;;;;;8.53;5.40;;;;;;;16.22;62.98;100407.61;1697320;82;25672;-77
2021/06/11 02:01:46;;;;;;;9.68;5.70;;;;;;;16.31;62.99;100409.55;1717569;81;25834;-77
2021/06/11 02:04:13;;;;;;;7.78;4.95;;;;;;;16.37;62.75;100407.44;1717738;81;25714;-80
2021/06/11 02:06:41;;;;;;;9.73;6.03;;;;;;;16.30;62.63;100415.84;1717655;81;25854;-80
2021/06/11 02:09:08;;;;;;;12.28;5.78;;;;;;;16.23;62.79;100408.41;1718107;81;25756;-80
2021/06/11 02:11:36;;;;;;;9.25;4.67;;;;;;;16.25;63.04;100409.03;1716403;81;25581;-78
2021/06/11 02:14:04;;;;;;;10.53;5.10;;;;;;;16.31;63.10;100405.59;1716920;81;26266;-78
2021/06/11 02:16:31;;;;;;;11.48;6.10;;;;;;;16.39;63.00;100405.39;1717078;81;25660;-78
2021/06/11 02:19:00;;;;;;;10.80;5.53;;;;;;;16.32;62.81;100410.67;1718422;81;25590;-79
2021/06/11 02:21:28;;;;;;;17.57;5.35;;;;;;;16.24;62.92;100406.11;1717764;81;26770;-80
2021/06/11 02:23:54;;;;;;;13.55;5.80;;;;;;;16.12;62.99;100411.13;1716798;81;26436;-80
2021/06/11 02:26:20;;;;;;;11.45;5.37;;;;;;;16.05;63.35;100404.54;1717728;81;31103;-80
2021/06/11 02:28:51;;;;;;;8.35;5.35;;;;;;;15.98;63.36;100411.61;1716329;81;25689;-80
2021/06/11 02:31:19;;;;;;;14.65;5.28;;;;;;;15.82;63.49;100417.24;1715703;81;25663;-80
2021/06/11 02:33:46;;;;;;;11.12;6.08;;;;;;;15.64;63.83;100408.55;1716936;81;25708;-78
2021/06/11 02:36:13;;;;;;;10.32;6.62;;;;;;;15.53;64.09;100413.87;1714845;81;25478;-80
2021/06/11 02:38:39;;;;;;;10.35;6.20;;;;;;;15.48;64.42;100407.87;1717685;81;25695;-80
2021/06/11 02:41:08;;;;;;;11.50;6.53;;;;;;;15.49;64.62;100406.84;1716834;81;25735;-80
2021/06/11 02:43:38;;;;;;;12.95;6.25;;;;;;;15.59;64.73;100409.64;1717167;81;25687;-80
2021/06/11 02:46:27;;;;;;;8.85;5.78;;;;;;;15.65;64.75;100408.84;1716489;81;25589;-80
2021/06/11 02:49:05;;;;;;;9.00;5.92;;;;;;;15.63;64.76;100408.22;1715510;81;26150;-80
2021/06/11 02:51:36;;;;;;;13.08;6.37;;;;;;;15.62;64.85;100415.83;1715571;81;25847;-80
2021/06/11 02:54:04;;;;;;;19.25;9.05;;;;;;;15.55;64.92;100406.59;1716405;81;25728;-80
2021/06/11 02:57:00;;;;;;;13.30;8.40;;;;;;;15.56;65.10;100410.03;1715217;81;26327;-80
2021/06/11 02:59:49;;;;;;;16.00;6.78;;;;;;;15.58;65.21;100415.42;1716628;81;26444;-81
2021/06/11 03:02:26;;;;;;;13.25;6.55;;;;;;;15.60;65.25;100417.84;1717937;81;25665;-81
2021/06/11 03:04:55;;;;;;;13.13;7.25;;;;;;;15.57;65.38;100421.68;1716724;81;25673;-81
2021/06/11 03:07:24;;;;;;;13.15;7.25;;;;;;;15.64;65.66;100417.77;1716854;81;25629;-79
2021/06/11 03:09:54;;;;;;;15.85;8.53;;;;;;;15.73;65.67;100419.25;1716355;81;26389;-78
2021/06/11 03:12:21;;;;;;;13.60;9.20;;;;;;;15.76;65.59;100418.34;1711610;81;26431;-80
2021/06/11 03:14:49;;;;;;;16.05;8.75;;;;;;;15.69;65.51;100426.74;1716000;81;25889;-81
2021/06/11 03:17:18;;;;;;;12.98;8.00;;;;;;;15.67;65.57;100426.09;1701967;82;25684;-80
2021/06/11 03:19:49;;;;;;;15.90;8.63;;;;;;;15.61;65.77;100424.25;1718525;81;25720;-80
2021/06/11 03:22:28;;;;;;;16.42;12.63;;;;;;;15.48;66.08;100422.36;1705493;81;25679;-80
2021/06/11 03:24:58;;;;;;;17.50;12.95;;;;;;;15.39;66.09;100425.36;1715429;81;26324;-81
2021/06/11 03:27:41;;;;;;;19.82;12.55;;;;;;;15.27;66.33;100425.88;1716679;81;25856;-81
2021/06/11 03:30:11;;;;;;;18.87;10.43;;;;;;;15.21;66.53;100427.17;1716144;81;25748;-81
2021/06/11 03:32:41;;;;;;;21.42;11.43;;;;;;;15.19;66.77;100426.55;1715352;81;25638;-79
2021/06/11 03:35:12;;;;;;;18.77;10.80;;;;;;;15.14;66.96;100419.73;1714745;81;25630;-79
2021/06/11 03:37:40;;;;;;;19.10;9.80;;;;;;;15.10;67.20;100427.21;1718330;81;25724;-79
2021/06/11 03:40:10;;;;;;;15.08;9.25;;;;;;;15.05;67.47;100422.52;1717618;81;25736;-79
2021/06/11 03:42:37;;;;;;;16.67;9.23;;;;;;;15.06;67.59;100421.53;1716928;81;25691;-79
2021/06/11 03:45:04;;;;;;;17.45;9.48;;;;;;;15.07;67.69;100425.77;1717854;81;25637;-79
2021/06/11 03:47:35;;;;;;;17.92;9.93;;;;;;;15.10;67.93;100427.21;1717050;81;25624;-79
2021/06/11 03:50:04;;;;;;;13.22;8.83;;;;;;;15.16;67.99;100426.94;1717182;81;26349;-81
2021/06/11 03:52:33;;;;;;;15.72;9.48;;;;;;;15.19;68.08;100432.63;1715200;81;25728;-81
2021/06/11 03:55:11;;;;;;;13.87;10.53;;;;;;;15.20;68.16;100432.14;1718332;81;25389;-80
2021/06/11 03:57:39;;;;;;;17.23;10.00;;;;;;;15.23;69.08;100432.56;1717636;81;25594;-81
2021/06/11 04:00:08;;;;;;;17.70;10.40;;;;;;;15.22;68.21;100432.27;1715240;81;25684;-81
2021/06/11 04:02:35;;;;;;;16.62;10.00;;;;;;;15.29;68.24;100427.83;1716510;81;25645;-81
2021/06/11 04:05:02;;;;;;;17.23;10.00;;;;;;;15.39;68.25;100432.76;1715239;81;25685;-81
2021/06/11 04:07:35;;;;;;;14.73;9.48;;;;;;;15.48;68.31;100434.72;1714774;81;25625;-81
2021/06/11 04:10:12;;;;;;;15.38;9.45;;;;;;;15.55;68.21;100432.94;1717122;81;25725;-81
2021/06/11 04:12:49;;;;;;;14.15;8.85;;;;;;;15.64;68.09;100432.27;1714745;81;25746;-81
2021/06/11 04:15:16;;;;;;;14.23;9.45;;;;;;;15.74;68.09;100430.09;1714291;81;25631;-81
2021/06/11 04:17:46;;;;;;;15.88;9.73;;;;;;;15.86;67.99;100434.30;1699741;81;25792;-81
2021/06/11 04:20:20;;;;;;;20.52;9.60;;;;;;;15.95;67.93;100437.06;1716728;81;25633;-81
2021/06/11 04:22:49;;;;;;;15.72;8.88;;;;;;;16.04;67.81;100429.78;1717288;81;25388;-81
2021/06/11 04:25:17;;;;;;;14.03;8.88;;;;;;;16.08;67.65;100425.75;1722156;81;25731;-81
2021/06/11 04:27:45;;;;;;;13.43;8.40;;;;;;;16.13;67.50;100428.09;1719682;81;25773;-82
2021/06/11 04:30:13;;;;;;;14.23;9.00;;;;;;;16.23;67.44;100429.52;1718275;81;25710;-81
2021/06/11 04:32:41;;;;;;;18.35;8.68;;;;;;;16.30;67.42;100436.43;1715762;81;25816;-81
2021/06/11 04:35:08;;;;;;;16.35;8.80;;;;;;;16.33;67.40;100437.86;1715923;81;25715;-81
2021/06/11 04:37:36;;;;;;;12.73;8.75;;;;;;;16.35;67.50;100430.56;1717062;81;26645;-81
2021/06/11 04:40:07;;;;;;;17.10;9.35;;;;;;;16.39;67.38;100435.73;1716614;81;25744;-81
2021/06/11 04:42:36;;;;;;;14.90;8.78;;;;;;;16.40;67.26;100437.37;1715690;81;25192;-81
2021/06/11 04:45:05;;;;;;;17.57;9.55;;;;;;;16.43;67.31;100435.65;1717366;81;25716;-81
2021/06/11 04:47:30;;;;;;;15.48;9.33;;;;;;;16.47;67.37;100440.81;1715085;81;25814;-78
2021/06/11 04:49:57;;;;;;;13.28;9.58;;;;;;;16.57;67.28;100437.27;1715147;81;33070;-78
2021/06/11 04:52:22;;;;;;;13.28;9.15;;;;;;;16.61;67.22;100432.39;1715754;81;25625;-79
2021/06/11 04:54:48;;;;;;;15.40;9.28;;;;;;;16.64;67.08;100430.66;1715295;81;33152;-78
2021/06/11 04:57:15;;;;;;;19.25;9.75;;;;;;;16.66;67.03;100424.69;1719075;81;25695;-81
2021/06/11 04:59:41;;;;;;;22.80;10.10;;;;;;;16.68;67.08;100421.86;1717443;81;25823;-81
2021/06/11 05:02:07;;;;;;;19.70;10.05;;;;;;;16.73;67.10;100426.83;1716516;81;25693;-80
2021/06/11 05:04:33;;;;;;;14.98;9.03;;;;;;;16.78;67.20;100424.94;1715987;81;25650;-78
2021/06/11 05:07:01;;;;;;;24.07;9.60;;;;;;;16.85;67.23;100430.48;1716388;81;33350;-80
2021/06/11 05:09:26;;;;;;;24.18;9.80;;;;;;;16.95;67.26;100429.28;1716952;81;25681;-81
2021/06/11 05:11:52;;;;;;;15.05;8.95;;;;;;;17.01;66.97;100427.94;1716571;81;34690;-83
2021/06/11 05:14:18;;;;;;;14.90;9.38;;;;;;;17.07;66.90;100431.06;1716838;81;32433;-83
2021/06/11 05:16:44;;;;;;;20.27;10.23;;;;;;;17.15;66.96;100422.63;1714462;81;26129;-83
2021/06/11 05:19:10;;;;;;;20.80;9.03;;;;;;;17.27;66.98;100428.92;1719571;81;33076;-80
2021/06/11 05:21:36;;;;;;;16.48;9.50;;;;;;;17.37;66.60;100426.63;1717082;81;25758;-80
2021/06/11 05:24:02;;;;;;;17.98;9.10;;;;;;;17.44;66.45;100429.27;1716837;81;34697;-80
2021/06/11 05:26:28;;;;;;;15.45;9.15;;;;;;;17.53;66.48;100428.82;1718338;81;25172;-80
2021/06/11 05:28:54;;;;;;;13.58;7.78;;;;;;;17.64;66.30;100430.00;1718035;81;25667;-80
2021/06/11 05:31:20;;;;;;;17.27;9.38;;;;;;;17.76;66.25;100431.50;1718134;81;33135;-79
2021/06/11 05:33:46;;;;;;;14.30;6.65;;;;;;;17.95;66.32;100433.74;1716495;81;31177;-81
2021/06/11 05:36:11;;;;;;;12.68;7.40;;;;;;;18.12;65.85;100432.76;1717023;81;35211;-79
2021/06/11 05:38:37;;;;;;;13.72;7.35;;;;;;;18.28;65.68;100428.28;1718074;81;26420;-81
2021/06/11 05:41:04;;;;;;;15.00;6.87;;;;;;;18.46;65.27;100434.66;1715009;81;25676;-79
2021/06/11 05:43:30;;;;;;;10.58;5.50;;;;;;;18.60;64.97;100436.17;1716217;81;25856;-80
2021/06/11 05:45:57;;;;;;;10.05;5.22;;;;;;;18.71;64.10;100428.84;1714636;81;25824;-80
2021/06/11 05:48:23;;;;;;;9.18;4.87;;;;;;;18.78;63.56;100432.29;1715846;81;25629;-79
2021/06/11 05:50:49;;;;;;;12.00;5.55;;;;;;;18.83;63.19;100434.30;1704826;81;25217;-80
2021/06/11 05:53:21;;;;;;;10.88;5.60;;;;;;;18.87;63.00;100437.31;1700943;81;25836;-79
2021/06/11 05:55:43;;;;;;;8.05;4.35;;;;;;;18.88;62.79;100437.11;1720494;81;26035;-79
2021/06/11 05:58:11;;;;;;;11.95;6.37;;;;;;;18.94;62.89;100436.23;1712991;81;31344;-79
2021/06/11 06:00:36;;;;;;;11.22;5.80;;;;;;;19.00;62.57;100443.81;1714155;81;25819;-80
2021/06/11 06:03:02;;;;;;;11.78;5.28;;;;;;;19.03;62.56;100435.42;1715168;81;30566;-80
2021/06/11 06:05:28;;;;;;;11.60;5.25;;;;;;;19.07;62.16;100436.63;1714287;81;26577;-78
2021/06/11 06:07:54;;;;;;;12.80;5.78;;;;;;;19.17;62.79;100434.78;1718922;81;33635;-80
2021/06/11 06:10:20;;;;;;;13.35;6.00;;;;;;;19.37;61.85;100430.09;1716373;81;31220;-80
2021/06/11 06:12:45;;;;;;;8.40;5.87;;;;;;;19.42;61.73;100431.53;1696076;81;34806;-79
2021/06/11 06:15:12;;;;;;;12.95;6.65;;;;;;;19.51;61.64;100433.39;1719284;80;25935;-79
2021/06/11 06:17:39;;;;;;;9.35;6.00;;;;;;;19.61;61.59;100433.66;1715324;81;26549;-80
2021/06/11 06:20:08;;;;;;;10.72;5.28;;;;;;;19.70;61.32;100435.55;1714009;81;25622;-79
2021/06/11 06:22:34;;;;;;;11.20;4.83;;;;;;;19.77;61.11;100434.13;1715347;81;26472;-79
2021/06/11 06:25:01;;;;;;;9.05;5.53;;;;;;;19.86;61.13;100433.60;1718257;81;25617;-79
2021/06/11 06:27:26;;;;;;;12.88;5.37;;;;;;;20.00;60.66;100435.56;1718793;81;25752;-80
2021/06/11 06:29:52;;;;;;;9.40;5.17;;;;;;;19.98;60.07;100433.64;1720454;81;25711;-79
2021/06/11 06:32:18;;;;;;;11.78;4.80;;;;;;;19.96;59.86;100434.38;1715498;81;33064;-81
2021/06/11 06:34:44;;;;;;;11.40;4.95;;;;;;;20.03;60.05;100426.34;1717511;81;31270;-78
2021/06/11 06:37:11;;;;;;;9.68;4.62;;;;;;;20.10;59.89;100429.69;1719255;81;25806;-78
2021/06/11 06:39:43;;;;;;;11.93;5.67;;;;;;;20.20;59.67;100435.79;1717118;81;25637;-80
2021/06/11 06:42:09;;;;;;;9.20;4.85;;;;;;;20.21;59.31;100434.22;1720299;81;25805;-78
2021/06/11 06:44:37;;;;;;;10.85;4.33;;;;;;;20.24;59.18;100429.78;1717784;81;33501;-72
2021/06/11 06:47:04;;;;;;;8.48;4.05;;;;;;;20.31;59.52;100433.68;1716170;81;25207;-76
2021/06/11 06:49:32;;;;;;;10.55;5.00;;;;;;;20.54;59.72;100433.77;1719944;81;25491;-78
2021/06/11 06:51:58;;;;;;;10.30;4.70;;;;;;;20.60;58.87;100434.70;1717283;81;25729;-80
2021/06/11 06:54:24;;;;;;;8.73;4.47;;;;;;;20.55;58.67;100422.09;1699198;81;27134;-81
2021/06/11 06:56:50;;;;;;;12.15;4.92;;;;;;;20.59;58.39;100421.11;1714742;81;25661;-80
2021/06/11 06:59:17;;;;;;;10.53;4.72;;;;;;;20.55;58.33;100422.09;1717786;81;31222;-81
2021/06/11 07:01:42;;;;;;;11.12;4.95;;;;;;;20.58;58.45;100418.17;1719727;81;25685;-81
2021/06/11 07:04:08;;;;;;;13.38;5.35;;;;;;;20.63;58.22;100420.16;1716720;81;25270;-82
2021/06/11 07:06:34;;;;;;;13.88;5.05;;;;;;;20.56;57.91;100422.89;1716535;81;25851;-81
2021/06/11 07:09:00;;;;;;;17.52;5.05;;;;;;;20.49;57.82;100422.16;1714694;81;33117;-84
2021/06/11 07:11:26;;;;;;;12.90;5.55;;;;;;;20.44;58.00;100430.02;1714080;81;31278;-84
2021/06/11 07:13:52;;;;;;;11.97;5.20;;;;;;;20.37;58.22;100433.56;1716432;81;25897;-84
2021/06/11 07:16:18;;;;;;;17.02;5.25;;;;;;;20.37;58.60;100436.22;1715188;81;25175;-76
2021/06/11 07:18:44;;;;;;;16.55;5.37;;;;;;;20.39;58.62;100435.48;1719955;81;25665;-80
2021/06/11 07:21:12;;;;;;;14.63;5.53;;;;;;;20.38;58.75;100438.38;1716629;81;33093;-81
2021/06/11 07:23:39;;;;;;;13.32;4.97;;;;;;;20.46;59.05;100433.23;1720716;81;25191;-81
2021/06/11 07:26:06;;;;;;;17.90;5.50;;;;;;;20.61;59.11;100430.47;1719236;81;25174;-76
2021/06/11 07:28:37;;;;;;;24.40;6.35;;;;;;;20.76;58.90;100427.37;1718036;81;25692;-81
2021/06/11 07:31:05;;;;;;;9.88;6.37;;;;;;;20.81;58.56;100425.33;1719029;81;25735;-83
2021/06/11 07:33:32;;;;;;;9.93;4.62;;;;;;;20.93;58.72;100422.17;1720745;81;25256;-84
2021/06/11 07:35:59;;;;;;;10.60;5.33;;;;;;;21.04;57.98;100421.88;1718215;81;25220;-85
2021/06/11 07:38:26;;;;;;;10.65;5.17;;;;;;;21.00;57.84;100421.51;1717201;81;25737;-78
2021/06/11 07:40:53;;;;;;;11.05;4.85;;;;;;;21.15;58.46;100423.71;1721481;81;25570;-84
2021/06/11 07:43:21;;;;;;;15.78;5.50;;;;;;;21.29;57.60;100425.59;1717446;81;25596;-82
2021/06/11 07:45:49;;;;;;;11.50;4.20;;;;;;;21.29;57.40;100429.58;1715296;81;25632;-80
2021/06/11 07:48:16;;;;;;;13.85;4.92;;;;;;;21.37;57.15;100424.43;1716980;81;25802;-83
2021/06/11 07:50:42;;;;;;;10.90;4.97;;;;;;;21.43;57.67;100421.66;1718021;81;25764;-79
2021/06/11 07:53:08;;;;;;;14.13;4.60;;;;;;;21.57;57.29;100416.07;1718620;81;25182;-83
2021/06/11 07:55:34;;;;;;;10.90;4.05;;;;;;;21.67;56.00;100420.27;1716925;81;25717;-82
2021/06/11 07:58:00;;;;;;;10.00;3.25;;;;;;;21.69;55.60;100422.17;1719360;81;33445;-80
2021/06/11 08:00:27;;;;;;;8.80;3.58;;;;;;;21.72;55.44;100421.17;1715935;81;25643;-81
2021/06/11 08:02:57;;;;;;;5.75;3.30;;;;;;;21.79;54.98;100423.67;1716135;81;25403;-81
2021/06/11 08:05:24;;;;;;;11.35;3.45;;;;;;;21.77;54.30;100424.95;1714748;81;25719;-84
2021/06/11 08:07:51;;;;;;;6.90;3.08;;;;;;;21.77;54.47;100421.80;1719525;81;25670;-83
2021/06/11 08:10:17;;;;;;;5.35;3.10;;;;;;;21.82;54.15;100422.39;1720096;81;26197;-87
2021/06/11 08:12:43;;;;;;;10.10;3.92;;;;;;;21.86;54.11;100429.67;1720805;81;25709;-81
2021/06/11 08:15:10;;;;;;;8.63;4.20;;;;;;;21.93;54.17;100415.71;1719831;81;25864;-79
2021/06/11 08:17:36;;;;;;;9.33;4.92;;;;;;;21.94;53.69;100412.52;1722770;81;25815;-82
2021/06/11 08:20:06;;;;;;;11.20;4.47;;;;;;;21.91;54.85;100409.81;1717630;81;26039;-80
2021/06/11 08:22:32;;;;;;;;;;;;;;;21.97;54.35;100403.25;1721794;81;25626;-78
2021/06/11 08:24:58;;;;;;;10.30;3.52;;;;;;;21.94;54.00;100410.66;1718113;81;31271;-81
2021/06/11 08:27:24;;;;;;;7.92;3.50;;;;;;;22.02;54.55;100408.67;1717703;81;25660;-78
2021/06/11 08:29:50;;;;;;;12.50;4.95;;;;;;;22.03;53.99;100412.41;1716262;81;25207;-79
2021/06/11 08:32:16;;;;;;;10.70;3.85;;;;;;;22.07;53.95;100408.23;1717435;81;25671;-79
2021/06/11 08:34:43;;;;;;;8.48;3.25;;;;;;;22.19;54.02;100412.71;1719175;81;25585;-81
2021/06/11 08:37:11;;;;;;;5.22;2.92;;;;;;;22.38;53.53;100416.23;1717909;81;25293;-80
2021/06/11 08:39:37;;;;;;;6.03;2.60;;;;;;;22.52;52.50;100407.91;1720340;81;25209;-80
2021/06/11 08:42:06;;;;;;;8.38;4.15;;;;;;;22.56;52.22;100405.03;1718343;81;25801;-78
2021/06/11 08:44:34;;;;;;;10.30;3.87;;;;;;;22.69;53.08;100407.90;1716946;81;25712;-77
2021/06/11 08:47:01;;;;;;;6.78;2.70;;;;;;;22.71;51.83;100405.80;1715409;81;25662;-79
2021/06/11 08:49:28;;;;;;;4.45;3.05;;;;;;;22.69;51.59;100407.90;1715912;81;37031;-77
2021/06/11 08:51:55;;;;;;;5.40;2.42;;;;;;;22.65;51.15;100404.13;1717593;81;25191;-80
2021/06/11 08:54:22;;;;;;;4.83;2.72;;;;;;;22.61;51.82;100401.92;1715339;81;25663;-76
2021/06/11 08:56:50;;;;;;;7.08;2.87;;;;;;;22.73;51.84;100413.04;1715246;81;25519;-77
2021/06/11 08:59:15;;;;;;;7.50;2.98;;;;;;;22.69;51.76;100404.70;1717666;81;25655;-76
2021/06/11 09:01:43;;;;;;;6.17;2.90;;;;;;;22.74;51.17;100403.45;1715344;81;25746;-80
2021/06/11 09:04:08;;;;;;;5.60;2.42;;;;;;;22.76;51.49;100410.68;1717624;81;25511;-77
2021/06/11 09:06:35;;;;;;;4.58;2.62;;;;;;;22.82;50.95;100403.03;1716973;82;25487;-76
2021/06/11 09:09:01;;;;;;;6.90;3.17;;;;;;;22.81;51.30;100401.43;1715596;81;25657;-80
2021/06/11 09:11:32;;;;;;;4.80;2.52;;;;;;;22.86;51.23;100406.00;1714751;81;25716;-80
2021/06/11 09:14:15;;;;;;;7.28;2.45;;;;;;;22.89;50.61;100404.71;1704443;82;25679;-81
2021/06/11 09:16:49;;;;;;;6.12;3.60;;;;;;;22.85;50.32;100400.94;1717972;81;25670;-79
2021/06/11 09:19:19;;;;;;;8.50;2.75;;;;;;;22.86;51.40;100393.20;1715733;81;25687;-79
2021/06/11 09:21:47;;;;;;;5.92;2.60;;;;;;;22.96;50.83;100388.05;1713712;81;25952;-80
2021/06/11 09:24:24;;;;;;;4.37;2.60;;;;;;;22.96;50.70;100394.19;1717344;81;25665;-81
2021/06/11 09:27:08;;;;;;;5.85;2.40;;;;;;;22.92;50.31;100383.72;1715171;81;25743;-79
2021/06/11 09:29:47;;;;;;;8.10;2.87;;;;;;;22.92;49.79;100383.72;1717437;81;26440;-80
2021/06/11 09:32:28;;;;;;;7.40;2.83;;;;;;;22.88;49.10;100388.45;1716616;81;25699;-81
2021/06/11 09:35:03;;;;;;;5.17;3.02;;;;;;;22.72;49.75;100388.75;1714633;81;25705;-79
2021/06/11 09:37:34;;;;;;;4.60;3.00;;;;;;;22.72;49.75;100394.08;1716892;81;26257;-79
2021/06/11 09:40:07;;;;;;;5.72;3.12;;;;;;;22.69;50.14;100386.58;1716270;81;25911;-79
2021/06/11 09:42:37;;;;;;;6.70;2.60;;;;;;;22.69;49.46;100383.91;1716901;81;25647;-79
2021/06/11 09:45:24;;;;;;;6.70;2.98;;;;;;;22.69;49.15;100386.58;1718177;81;26867;-79
2021/06/11 09:47:51;;;;;;;5.30;2.42;;;;;;;22.64;49.31;100391.83;1712277;82;25658;-79
2021/06/11 09:50:29;;;;;;;6.12;2.40;;;;;;;22.61;48.97;100394.45;1737424;81;25741;-79
2021/06/11 09:53:08;;;;;;;5.70;2.70;;;;;;;22.59;49.14;100393.39;1736264;81;25667;-79
2021/06/11 09:55:42;;;;;;;4.60;2.30;;;;;;;22.54;49.15;100393.84;1735011;80;26374;-78
2021/06/11 09:58:18;;;;;;;10.43;2.75;;;;;;;22.50;49.40;100390.03;1735271;81;25757;-82
2021/06/11 10:01:00;;;;;;;8.70;2.45;;;;;;;22.50;49.34;100383.37;1736793;81;26549;-82
2021/06/11 10:03:37;;;;;;;4.53;2.92;;;;;;;22.51;49.37;100383.67;1733841;81;26421;-82
2021/06/11 10:06:04;;;;;;;5.60;2.65;;;;;;;22.50;49.20;100381.50;1735387;80;25634;-84
2021/06/11 10:08:30;;;;;;;5.22;2.98;;;;;;;22.54;49.46;100381.31;1735730;81;25690;-84
2021/06/11 10:11:00;;;;;;;7.55;2.60;;;;;;;22.58;49.42;100369.11;1731229;80;25635;-80
2021/06/11 10:13:26;;;;;;;6.20;2.83;;;;;;;22.63;49.25;100372.37;1733463;80;26338;-83
2021/06/11 10:15:55;;;;;;;5.08;2.45;;;;;;;22.63;49.25;100372.37;1732413;80;27001;-85
2021/06/11 10:18:22;;;;;;;6.62;2.33;;;;;;;22.56;49.00;100374.39;1732291;80;25861;-82
2021/06/11 10:20:49;;;;;;;13.43;3.17;;;;;;;22.63;49.48;100363.59;1734884;80;25632;-79
2021/06/11 10:23:20;;;;;;;7.62;2.83;;;;;;;22.66;49.30;100364.42;1734615;80;25244;-78
2021/06/11 10:25:51;;;;;;;9.70;2.98;;;;;;;22.70;48.81;100366.36;1732513;81;25692;-80
2021/06/11 10:28:29;;;;;;;11.03;2.90;;;;;;;22.76;49.14;100368.57;1736453;81;25602;-81
2021/06/11 10:31:14;;;;;;;4.50;2.50;;;;;;;22.80;48.79;100370.48;1736913;82;25791;-81
2021/06/11 10:33:59;;;;;;;4.65;2.10;;;;;;;22.80;48.42;100370.48;1734019;80;25730;-81
2021/06/11 10:36:38;;;;;;;4.42;2.40;;;;;;;22.69;48.39;100366.06;1733261;80;26214;-80
2021/06/11 10:39:20;;;;;;;8.55;2.60;;;;;;;22.66;48.49;100366.55;1734652;80;25696;-80
2021/06/11 10:42:11;;;;;;;6.53;2.22;;;;;;;22.65;48.18;100363.63;1737410;81;25869;-77
2021/06/11 10:44:54;;;;;;;6.10;2.30;;;;;;;22.69;48.30;100369.27;1735584;80;25595;-77
2021/06/11 10:47:24;;;;;;;6.53;2.45;;;;;;;22.73;48.58;100365.87;1730666;80;25650;-78
2021/06/11 10:50:01;;;;;;;4.35;2.45;;;;;;;22.73;47.98;100360.54;1735986;80;25928;-76
2021/06/11 10:52:48;;;;;;;3.40;1.95;;;;;;;22.69;47.86;100362.06;1734417;81;25670;-81
2021/06/11 10:55:19;;;;;;;6.20;2.58;;;;;;;22.63;48.19;100359.06;1733969;80;25559;-80
2021/06/11 10:57:58;;;;;;;2.60;2.20;;;;;;;22.59;48.34;100359.28;1736417;80;25706;-81
2021/06/11 11:00:34;;;;;;;5.87;2.30;;;;;;;22.72;48.58;100362.91;1733553;81;25798;-82
2021/06/11 11:03:04;;;;;;;3.47;2.10;;;;;;;22.86;48.35;100358.56;1734146;80;26627;-83
2021/06/11 11:05:36;;;;;;;;;;;;;;;22.95;47.82;100359.23;1738157;81;25613;-81
2021/06/11 11:08:06;;;;;;;6.97;2.20;;;;;;;22.90;47.39;100357.03;1733030;81;25825;-80
2021/06/11 11:10:48;;;;;;;5.67;2.40;;;;;;;22.77;46.94;100349.66;1737383;81;25764;-77
2021/06/11 11:13:27;;;;;;;7.60;2.50;;;;;;;22.73;47.58;100351.21;1737468;82;25717;-82
2021/06/11 11:15:57;;;;;;;5.78;2.60;;;;;;;22.71;48.17;100349.84;1736738;80;25809;-80
2021/06/11 11:18:37;;;;;;;5.12;2.65;;;;;;;22.74;48.38;100355.48;1715969;82;25545;-82
2021/06/11 11:21:34;;;;;;;7.12;2.27;;;;;;;22.84;48.60;100346.83;1734083;80;25690;-81
2021/06/11 11:24:08;;;;;;;8.95;2.40;;;;;;;22.94;48.33;100342.14;1731414;81;25182;-81
2021/06/11 11:26:50;;;;;;;4.30;2.30;;;;;;;23.07;48.02;100339.14;1734094;80;25723;-75
2021/06/11 11:29:19;;;;;;;5.97;2.45;;;;;;;23.15;48.15;100341.91;1734935;81;25248;-75
2021/06/11 11:31:48;;;;;;;5.65;2.42;;;;;;;23.16;47.83;100332.84;1734192;80;25581;-79